sensor_id;sensor_type;location;lat;lon;timestamp;P1;durP1;ratioP1;P2;durP2;ratioP2
51961;SDS011;37986;51.238;17.128;2022-09-03T00:02:37;1.27;;;0.93;;
51961;SDS011;37986;51.238;17.128;2022-09-03T00:05:31;2.55;;;0.80;;
51961;SDS011;37986;51.238;17.128;2022-09-03T00:11:00;1.37;;;0.88;;
51961;SDS011;37986;51.238;17.128;2022-09-03T00:16:28;1.50;;;0.82;;
51961;SDS011;37986;51.238;17.128;2022-09-03T00:19:16;1.35;;;1.00;;
51961;SDS011;37986;51.238;17.128;2022-09-03T00:21:50;2.50;;;1.40;;
51961;SDS011;37986;51.238;17.128;2022-09-03T00:24:20;1.77;;;1.00;;
51961;SDS011;37986;51.238;17.128;2022-09-03T00:26:52;1.42;;;0.72;;
51961;SDS011;37986;51.238;17.128;2022-09-03T00:29:56;1.77;;;1.20;;
51961;SDS011;37986;51.238;17.128;2022-09-03T00:32:18;1.37;;;0.90;;
51961;SDS011;37986;51.238;17.128;2022-09-03T00:34:52;1.00;;;0.70;;
51961;SDS011;37986;51.238;17.128;2022-09-03T00:37:22;2.70;;;0.70;;
51961;SDS011;37986;51.238;17.128;2022-09-03T00:39:47;4.27;;;1.20;;
51961;SDS011;37986;51.238;17.128;2022-09-03T00:42:36;1.30;;;0.80;;
51961;SDS011;37986;51.238;17.128;2022-09-03T00:50:44;3.98;;;1.30;;
51961;SDS011;37986;51.238;17.128;2022-09-03T00:53:26;2.75;;;0.90;;
51961;SDS011;37986;51.238;17.128;2022-09-03T00:56:24;3.50;;;1.00;;
51961;SDS011;37986;51.238;17.128;2022-09-03T00:59:02;4.25;;;1.10;;
51961;SDS011;37986;51.238;17.128;2022-09-03T01:12:56;1.27;;;0.90;;
51961;SDS011;37986;51.238;17.128;2022-09-03T01:15:35;1.57;;;0.90;;
51961;SDS011;37986;51.238;17.128;2022-09-03T01:18:17;2.92;;;0.88;;
51961;SDS011;37986;51.238;17.128;2022-09-03T01:32:15;1.98;;;1.35;;
51961;SDS011;37986;51.238;17.128;2022-09-03T01:34:57;1.40;;;0.90;;
51961;SDS011;37986;51.238;17.128;2022-09-03T01:46:49;1.25;;;1.12;;
51961;SDS011;37986;51.238;17.128;2022-09-03T01:52:10;2.00;;;1.45;;
51961;SDS011;37986;51.238;17.128;2022-09-03T01:54:43;1.50;;;1.10;;
51961;SDS011;37986;51.238;17.128;2022-09-03T02:00:24;4.65;;;1.02;;
51961;SDS011;37986;51.238;17.128;2022-09-03T02:02:51;3.33;;;1.17;;
51961;SDS011;37986;51.238;17.128;2022-09-03T02:05:21;6.10;;;1.60;;
51961;SDS011;37986;51.238;17.128;2022-09-03T02:08:00;6.67;;;2.20;;
51961;SDS011;37986;51.238;17.128;2022-09-03T02:10:33;2.42;;;1.17;;
51961;SDS011;37986;51.238;17.128;2022-09-03T02:13:13;2.27;;;1.42;;
51961;SDS011;37986;51.238;17.128;2022-09-03T02:15:40;4.60;;;1.40;;
51961;SDS011;37986;51.238;17.128;2022-09-03T02:18:12;2.90;;;1.27;;
51961;SDS011;37986;51.238;17.128;2022-09-03T02:20:56;3.02;;;1.40;;
51961;SDS011;37986;51.238;17.128;2022-09-03T02:23:23;1.92;;;1.40;;
51961;SDS011;37986;51.238;17.128;2022-09-03T02:25:51;5.72;;;1.47;;
51961;SDS011;37986;51.238;17.128;2022-09-03T02:30:48;2.87;;;1.40;;
51961;SDS011;37986;51.238;17.128;2022-09-03T02:33:15;4.08;;;1.52;;
51961;SDS011;37986;51.238;17.128;2022-09-03T02:35:41;4.25;;;1.15;;
51961;SDS011;37986;51.238;17.128;2022-09-03T02:38:12;3.40;;;1.32;;
51961;SDS011;37986;51.238;17.128;2022-09-03T02:40:45;4.47;;;1.60;;
51961;SDS011;37986;51.238;17.128;2022-09-03T02:43:22;3.47;;;1.30;;
51961;SDS011;37986;51.238;17.128;2022-09-03T02:45:53;7.92;;;2.22;;
51961;SDS011;37986;51.238;17.128;2022-09-03T02:48:22;4.67;;;1.40;;
51961;SDS011;37986;51.238;17.128;2022-09-03T02:50:48;4.70;;;1.47;;
51961;SDS011;37986;51.238;17.128;2022-09-03T02:53:15;3.10;;;1.30;;
51961;SDS011;37986;51.238;17.128;2022-09-03T02:55:41;2.52;;;1.50;;
51961;SDS011;37986;51.238;17.128;2022-09-03T02:58:07;3.77;;;1.53;;
51961;SDS011;37986;51.238;17.128;2022-09-03T03:00:36;2.85;;;1.60;;
51961;SDS011;37986;51.238;17.128;2022-09-03T03:03:02;4.28;;;1.52;;
51961;SDS011;37986;51.238;17.128;2022-09-03T03:05:43;2.47;;;1.22;;
51961;SDS011;37986;51.238;17.128;2022-09-03T03:08:13;3.12;;;1.62;;
51961;SDS011;37986;51.238;17.128;2022-09-03T03:10:41;7.62;;;1.47;;
51961;SDS011;37986;51.238;17.128;2022-09-03T03:13:09;2.10;;;1.40;;
51961;SDS011;37986;51.238;17.128;2022-09-03T03:15:36;7.45;;;1.50;;
51961;SDS011;37986;51.238;17.128;2022-09-03T03:18:02;3.35;;;1.50;;
51961;SDS011;37986;51.238;17.128;2022-09-03T03:20:28;3.17;;;1.50;;
51961;SDS011;37986;51.238;17.128;2022-09-03T03:22:54;3.83;;;1.30;;
51961;SDS011;37986;51.238;17.128;2022-09-03T03:25:20;3.05;;;1.40;;
51961;SDS011;37986;51.238;17.128;2022-09-03T03:27:45;5.97;;;1.50;;
51961;SDS011;37986;51.238;17.128;2022-09-03T03:30:11;3.83;;;1.50;;
51961;SDS011;37986;51.238;17.128;2022-09-03T03:32:38;1.57;;;1.05;;
51961;SDS011;37986;51.238;17.128;2022-09-03T03:35:04;2.08;;;1.65;;
51961;SDS011;37986;51.238;17.128;2022-09-03T03:37:32;3.17;;;1.55;;
51961;SDS011;37986;51.238;17.128;2022-09-03T03:40:00;6.10;;;1.32;;
51961;SDS011;37986;51.238;17.128;2022-09-03T03:42:25;4.20;;;1.50;;
51961;SDS011;37986;51.238;17.128;2022-09-03T03:44:51;1.70;;;1.10;;
51961;SDS011;37986;51.238;17.128;2022-09-03T03:47:17;4.17;;;1.50;;
51961;SDS011;37986;51.238;17.128;2022-09-03T03:49:43;5.53;;;2.08;;
51961;SDS011;37986;51.238;17.128;2022-09-03T03:52:09;2.22;;;1.30;;
51961;SDS011;37986;51.238;17.128;2022-09-03T03:54:35;3.33;;;1.50;;
51961;SDS011;37986;51.238;17.128;2022-09-03T03:57:01;3.33;;;1.50;;
51961;SDS011;37986;51.238;17.128;2022-09-03T03:59:27;4.95;;;1.35;;
51961;SDS011;37986;51.238;17.128;2022-09-03T04:01:56;3.40;;;1.77;;
51961;SDS011;37986;51.238;17.128;2022-09-03T04:04:21;2.55;;;1.52;;
51961;SDS011;37986;51.238;17.128;2022-09-03T04:06:47;2.00;;;1.20;;
51961;SDS011;37986;51.238;17.128;2022-09-03T04:09:13;4.60;;;1.90;;
51961;SDS011;37986;51.238;17.128;2022-09-03T04:11:39;3.37;;;1.53;;
51961;SDS011;37986;51.238;17.128;2022-09-03T04:14:04;3.52;;;1.57;;
51961;SDS011;37986;51.238;17.128;2022-09-03T04:16:30;3.00;;;1.65;;
51961;SDS011;37986;51.238;17.128;2022-09-03T04:18:57;4.15;;;2.10;;
51961;SDS011;37986;51.238;17.128;2022-09-03T04:21:29;3.33;;;1.50;;
51961;SDS011;37986;51.238;17.128;2022-09-03T04:23:54;2.70;;;1.70;;
51961;SDS011;37986;51.238;17.128;2022-09-03T04:26:23;2.40;;;1.60;;
51961;SDS011;37986;51.238;17.128;2022-09-03T04:28:54;2.58;;;1.70;;
51961;SDS011;37986;51.238;17.128;2022-09-03T04:31:20;3.00;;;1.50;;
51961;SDS011;37986;51.238;17.128;2022-09-03T04:33:47;2.30;;;1.60;;
51961;SDS011;37986;51.238;17.128;2022-09-03T04:36:17;1.85;;;1.35;;
51961;SDS011;37986;51.238;17.128;2022-09-03T04:38:46;6.62;;;2.35;;
51961;SDS011;37986;51.238;17.128;2022-09-03T04:41:15;3.62;;;1.60;;
51961;SDS011;37986;51.238;17.128;2022-09-03T04:43:44;4.90;;;1.72;;
51961;SDS011;37986;51.238;17.128;2022-09-03T04:46:12;3.62;;;1.50;;
51961;SDS011;37986;51.238;17.128;2022-09-03T04:48:39;7.97;;;1.67;;
51961;SDS011;37986;51.238;17.128;2022-09-03T04:53:40;6.08;;;1.45;;
51961;SDS011;37986;51.238;17.128;2022-09-03T04:56:20;2.60;;;1.30;;
51961;SDS011;37986;51.238;17.128;2022-09-03T04:58:46;3.90;;;1.75;;
51961;SDS011;37986;51.238;17.128;2022-09-03T05:01:17;2.92;;;1.57;;
51961;SDS011;37986;51.238;17.128;2022-09-03T05:03:46;2.35;;;1.20;;
51961;SDS011;37986;51.238;17.128;2022-09-03T05:06:12;4.92;;;1.22;;
51961;SDS011;37986;51.238;17.128;2022-09-03T05:08:41;3.65;;;1.77;;
51961;SDS011;37986;51.238;17.128;2022-09-03T05:11:08;2.67;;;1.35;;
51961;SDS011;37986;51.238;17.128;2022-09-03T05:13:34;4.97;;;1.82;;
51961;SDS011;37986;51.238;17.128;2022-09-03T05:16:04;2.35;;;1.42;;
51961;SDS011;37986;51.238;17.128;2022-09-03T05:18:33;2.05;;;1.10;;
51961;SDS011;37986;51.238;17.128;2022-09-03T05:21:01;5.58;;;2.45;;
51961;SDS011;37986;51.238;17.128;2022-09-03T05:23:30;4.53;;;1.60;;
51961;SDS011;37986;51.238;17.128;2022-09-03T05:25:58;3.70;;;1.50;;
51961;SDS011;37986;51.238;17.128;2022-09-03T05:28:27;1.85;;;1.22;;
51961;SDS011;37986;51.238;17.128;2022-09-03T05:31:02;2.25;;;1.17;;
51961;SDS011;37986;51.238;17.128;2022-09-03T05:33:36;3.55;;;1.42;;
51961;SDS011;37986;51.238;17.128;2022-09-03T05:36:08;5.03;;;1.30;;
51961;SDS011;37986;51.238;17.128;2022-09-03T05:38:37;3.58;;;1.40;;
51961;SDS011;37986;51.238;17.128;2022-09-03T05:41:05;4.47;;;1.40;;
51961;SDS011;37986;51.238;17.128;2022-09-03T05:43:33;3.02;;;1.45;;
51961;SDS011;37986;51.238;17.128;2022-09-03T05:46:00;4.17;;;1.55;;
51961;SDS011;37986;51.238;17.128;2022-09-03T05:48:30;4.17;;;1.65;;
51961;SDS011;37986;51.238;17.128;2022-09-03T05:51:05;6.05;;;2.35;;
51961;SDS011;37986;51.238;17.128;2022-09-03T05:53:35;3.02;;;1.40;;
51961;SDS011;37986;51.238;17.128;2022-09-03T05:56:04;5.45;;;1.60;;
51961;SDS011;37986;51.238;17.128;2022-09-03T05:58:36;3.67;;;1.70;;
51961;SDS011;37986;51.238;17.128;2022-09-03T06:01:14;3.83;;;1.30;;
51961;SDS011;37986;51.238;17.128;2022-09-03T06:03:39;3.30;;;1.35;;
51961;SDS011;37986;51.238;17.128;2022-09-03T06:06:07;3.58;;;1.40;;
51961;SDS011;37986;51.238;17.128;2022-09-03T06:08:34;3.12;;;1.92;;
51961;SDS011;37986;51.238;17.128;2022-09-03T06:11:01;3.40;;;1.95;;
51961;SDS011;37986;51.238;17.128;2022-09-03T06:13:29;3.10;;;1.50;;
51961;SDS011;37986;51.238;17.128;2022-09-03T06:15:57;7.28;;;1.75;;
51961;SDS011;37986;51.238;17.128;2022-09-03T06:18:26;4.22;;;2.00;;
51961;SDS011;37986;51.238;17.128;2022-09-03T06:20:53;3.47;;;1.77;;
51961;SDS011;37986;51.238;17.128;2022-09-03T06:23:22;5.95;;;2.08;;
51961;SDS011;37986;51.238;17.128;2022-09-03T06:26:05;5.22;;;2.17;;
51961;SDS011;37986;51.238;17.128;2022-09-03T06:28:33;2.62;;;1.42;;
51961;SDS011;37986;51.238;17.128;2022-09-03T06:31:03;9.03;;;1.67;;
51961;SDS011;37986;51.238;17.128;2022-09-03T06:33:32;5.60;;;1.70;;
51961;SDS011;37986;51.238;17.128;2022-09-03T06:36:01;3.10;;;1.47;;
51961;SDS011;37986;51.238;17.128;2022-09-03T06:38:30;9.10;;;2.72;;
51961;SDS011;37986;51.238;17.128;2022-09-03T06:40:59;2.87;;;1.70;;
51961;SDS011;37986;51.238;17.128;2022-09-03T06:43:32;6.25;;;1.70;;
51961;SDS011;37986;51.238;17.128;2022-09-03T06:46:01;6.53;;;1.85;;
51961;SDS011;37986;51.238;17.128;2022-09-03T06:48:31;4.42;;;1.90;;
51961;SDS011;37986;51.238;17.128;2022-09-03T06:50:59;4.47;;;1.87;;
51961;SDS011;37986;51.238;17.128;2022-09-03T06:53:29;3.55;;;1.72;;
51961;SDS011;37986;51.238;17.128;2022-09-03T06:56:01;3.45;;;1.98;;
51961;SDS011;37986;51.238;17.128;2022-09-03T06:58:32;2.27;;;1.70;;
51961;SDS011;37986;51.238;17.128;2022-09-03T07:01:06;5.90;;;2.00;;
51961;SDS011;37986;51.238;17.128;2022-09-03T07:03:38;4.45;;;1.55;;
51961;SDS011;37986;51.238;17.128;2022-09-03T07:06:07;3.08;;;1.60;;
51961;SDS011;37986;51.238;17.128;2022-09-03T07:08:38;4.75;;;2.42;;
51961;SDS011;37986;51.238;17.128;2022-09-03T07:11:07;3.22;;;1.98;;
51961;SDS011;37986;51.238;17.128;2022-09-03T07:13:37;5.12;;;2.10;;
51961;SDS011;37986;51.238;17.128;2022-09-03T07:16:09;7.75;;;2.00;;
51961;SDS011;37986;51.238;17.128;2022-09-03T07:21:11;4.58;;;2.10;;
51961;SDS011;37986;51.238;17.128;2022-09-03T07:23:39;2.15;;;1.52;;
51961;SDS011;37986;51.238;17.128;2022-09-03T07:26:07;7.15;;;1.90;;
51961;SDS011;37986;51.238;17.128;2022-09-03T07:28:40;2.85;;;1.62;;
51961;SDS011;37986;51.238;17.128;2022-09-03T07:31:08;4.42;;;1.90;;
51961;SDS011;37986;51.238;17.128;2022-09-03T07:33:40;5.17;;;1.57;;
51961;SDS011;37986;51.238;17.128;2022-09-03T07:36:08;6.08;;;2.27;;
51961;SDS011;37986;51.238;17.128;2022-09-03T07:38:37;3.52;;;1.90;;
51961;SDS011;37986;51.238;17.128;2022-09-03T07:41:04;3.35;;;1.70;;
51961;SDS011;37986;51.238;17.128;2022-09-03T07:43:33;5.00;;;2.17;;
51961;SDS011;37986;51.238;17.128;2022-09-03T07:46:04;3.95;;;1.77;;
51961;SDS011;37986;51.238;17.128;2022-09-03T07:48:33;5.75;;;1.98;;
51961;SDS011;37986;51.238;17.128;2022-09-03T07:50:59;3.95;;;1.85;;
51961;SDS011;37986;51.238;17.128;2022-09-03T07:53:25;3.33;;;1.87;;
51961;SDS011;37986;51.238;17.128;2022-09-03T07:55:59;7.08;;;1.98;;
51961;SDS011;37986;51.238;17.128;2022-09-03T07:58:33;6.97;;;2.17;;
51961;SDS011;37986;51.238;17.128;2022-09-03T08:01:04;3.72;;;1.72;;
51961;SDS011;37986;51.238;17.128;2022-09-03T08:03:34;5.12;;;2.30;;
51961;SDS011;37986;51.238;17.128;2022-09-03T08:06:04;6.33;;;1.70;;
51961;SDS011;37986;51.238;17.128;2022-09-03T08:08:32;2.80;;;1.72;;
51961;SDS011;37986;51.238;17.128;2022-09-03T08:11:07;4.10;;;2.02;;
51961;SDS011;37986;51.238;17.128;2022-09-03T08:16:14;5.20;;;2.20;;
51961;SDS011;37986;51.238;17.128;2022-09-03T08:18:39;4.62;;;2.47;;
51961;SDS011;37986;51.238;17.128;2022-09-03T08:21:05;4.28;;;2.20;;
51961;SDS011;37986;51.238;17.128;2022-09-03T08:23:38;3.80;;;1.82;;
51961;SDS011;37986;51.238;17.128;2022-09-03T08:26:05;3.47;;;2.02;;
51961;SDS011;37986;51.238;17.128;2022-09-03T08:28:32;6.08;;;1.90;;
51961;SDS011;37986;51.238;17.128;2022-09-03T08:31:09;5.05;;;2.60;;
51961;SDS011;37986;51.238;17.128;2022-09-03T08:33:45;5.72;;;2.67;;
51961;SDS011;37986;51.238;17.128;2022-09-03T08:36:15;8.35;;;2.85;;
51961;SDS011;37986;51.238;17.128;2022-09-03T08:38:47;4.67;;;2.47;;
51961;SDS011;37986;51.238;17.128;2022-09-03T08:41:24;6.17;;;2.80;;
51961;SDS011;37986;51.238;17.128;2022-09-03T08:49:57;8.65;;;3.58;;
51961;SDS011;37986;51.238;17.128;2022-09-03T08:55:58;5.12;;;2.98;;
51961;SDS011;37986;51.238;17.128;2022-09-03T08:58:28;6.92;;;3.77;;
51961;SDS011;37986;51.238;17.128;2022-09-03T09:00:59;7.20;;;3.25;;
51961;SDS011;37986;51.238;17.128;2022-09-03T09:15:10;7.25;;;4.08;;
51961;SDS011;37986;51.238;17.128;2022-09-03T09:21:08;6.62;;;2.92;;
51961;SDS011;37986;51.238;17.128;2022-09-03T09:23:47;7.78;;;2.98;;
51961;SDS011;37986;51.238;17.128;2022-09-03T09:26:16;6.97;;;2.67;;
51961;SDS011;37986;51.238;17.128;2022-09-03T09:28:46;6.35;;;2.62;;
51961;SDS011;37986;51.238;17.128;2022-09-03T09:31:16;5.75;;;2.70;;
51961;SDS011;37986;51.238;17.128;2022-09-03T09:33:43;6.10;;;3.60;;
51961;SDS011;37986;51.238;17.128;2022-09-03T09:36:13;4.67;;;2.80;;
51961;SDS011;37986;51.238;17.128;2022-09-03T09:38:44;4.17;;;3.00;;
51961;SDS011;37986;51.238;17.128;2022-09-03T09:41:15;6.75;;;2.77;;
51961;SDS011;37986;51.238;17.128;2022-09-03T09:43:46;5.60;;;2.80;;
51961;SDS011;37986;51.238;17.128;2022-09-03T09:46:14;6.62;;;3.05;;
51961;SDS011;37986;51.238;17.128;2022-09-03T09:48:50;7.92;;;3.10;;
51961;SDS011;37986;51.238;17.128;2022-09-03T09:51:20;9.25;;;3.08;;
51961;SDS011;37986;51.238;17.128;2022-09-03T09:56:44;12.10;;;3.72;;
51961;SDS011;37986;51.238;17.128;2022-09-03T09:59:12;4.33;;;2.52;;
51961;SDS011;37986;51.238;17.128;2022-09-03T10:01:43;7.37;;;2.45;;
51961;SDS011;37986;51.238;17.128;2022-09-03T10:04:28;6.85;;;3.17;;
51961;SDS011;37986;51.238;17.128;2022-09-03T10:07:02;5.95;;;3.20;;
51961;SDS011;37986;51.238;17.128;2022-09-03T10:09:43;6.95;;;2.87;;
51961;SDS011;37986;51.238;17.128;2022-09-03T10:12:18;4.42;;;2.67;;
51961;SDS011;37986;51.238;17.128;2022-09-03T10:14:54;5.40;;;2.90;;
51961;SDS011;37986;51.238;17.128;2022-09-03T10:20:44;5.00;;;2.72;;
51961;SDS011;37986;51.238;17.128;2022-09-03T10:23:28;15.72;;;4.12;;
51961;SDS011;37986;51.238;17.128;2022-09-03T10:26:16;4.60;;;2.62;;
51961;SDS011;37986;51.238;17.128;2022-09-03T10:28:48;5.87;;;3.17;;
51961;SDS011;37986;51.238;17.128;2022-09-03T10:31:19;6.75;;;3.08;;
51961;SDS011;37986;51.238;17.128;2022-09-03T10:48:36;8.65;;;3.98;;
51961;SDS011;37986;51.238;17.128;2022-09-03T10:57:14;7.62;;;3.35;;
51961;SDS011;37986;51.238;17.128;2022-09-03T11:06:01;8.40;;;3.47;;
51961;SDS011;37986;51.238;17.128;2022-09-03T11:08:40;5.80;;;3.08;;
51961;SDS011;37986;51.238;17.128;2022-09-03T11:13:47;5.90;;;3.27;;
51961;SDS011;37986;51.238;17.128;2022-09-03T11:16:25;6.20;;;2.95;;
51961;SDS011;37986;51.238;17.128;2022-09-03T11:18:56;7.55;;;3.17;;
51961;SDS011;37986;51.238;17.128;2022-09-03T11:21:29;5.55;;;2.62;;
51961;SDS011;37986;51.238;17.128;2022-09-03T11:24:41;5.83;;;2.62;;
51961;SDS011;37986;51.238;17.128;2022-09-03T11:26:40;5.08;;;3.00;;
51961;SDS011;37986;51.238;17.128;2022-09-03T11:32:08;8.53;;;3.00;;
51961;SDS011;37986;51.238;17.128;2022-09-03T11:34:46;8.65;;;3.17;;
51961;SDS011;37986;51.238;17.128;2022-09-03T11:40:14;4.72;;;2.55;;
51961;SDS011;37986;51.238;17.128;2022-09-03T11:42:34;3.15;;;2.33;;
51961;SDS011;37986;51.238;17.128;2022-09-03T11:47:55;6.60;;;2.67;;
51961;SDS011;37986;51.238;17.128;2022-09-03T11:50:23;6.00;;;2.85;;
51961;SDS011;37986;51.238;17.128;2022-09-03T11:52:53;4.22;;;2.40;;
51961;SDS011;37986;51.238;17.128;2022-09-03T11:56:20;6.28;;;2.90;;
51961;SDS011;37986;51.238;17.128;2022-09-03T11:58:27;6.55;;;2.50;;
51961;SDS011;37986;51.238;17.128;2022-09-03T12:00:57;5.58;;;3.00;;
51961;SDS011;37986;51.238;17.128;2022-09-03T12:03:28;5.08;;;2.35;;
51961;SDS011;37986;51.238;17.128;2022-09-03T12:06:21;5.00;;;2.37;;
51961;SDS011;37986;51.238;17.128;2022-09-03T12:12:07;7.62;;;2.50;;
51961;SDS011;37986;51.238;17.128;2022-09-03T12:20:41;4.53;;;2.52;;
51961;SDS011;37986;51.238;17.128;2022-09-03T12:23:13;7.17;;;2.62;;
51961;SDS011;37986;51.238;17.128;2022-09-03T12:25:44;4.03;;;2.08;;
51961;SDS011;37986;51.238;17.128;2022-09-03T12:28:15;7.20;;;2.90;;
51961;SDS011;37986;51.238;17.128;2022-09-03T12:30:43;6.62;;;2.45;;
51961;SDS011;37986;51.238;17.128;2022-09-03T12:33:10;7.20;;;2.55;;
51961;SDS011;37986;51.238;17.128;2022-09-03T12:35:42;4.40;;;2.72;;
51961;SDS011;37986;51.238;17.128;2022-09-03T12:38:08;3.80;;;2.12;;
51961;SDS011;37986;51.238;17.128;2022-09-03T12:40:41;6.87;;;2.25;;
51961;SDS011;37986;51.238;17.128;2022-09-03T12:43:12;5.10;;;2.55;;
51961;SDS011;37986;51.238;17.128;2022-09-03T12:48:13;5.28;;;2.72;;
51961;SDS011;37986;51.238;17.128;2022-09-03T12:50:41;11.20;;;2.35;;
51961;SDS011;37986;51.238;17.128;2022-09-03T12:53:10;4.03;;;2.40;;
51961;SDS011;37986;51.238;17.128;2022-09-03T12:55:56;7.40;;;3.00;;
51961;SDS011;37986;51.238;17.128;2022-09-03T13:00:53;4.35;;;2.40;;
51961;SDS011;37986;51.238;17.128;2022-09-03T13:06:09;5.87;;;2.87;;
51961;SDS011;37986;51.238;17.128;2022-09-03T13:08:40;3.83;;;2.52;;
51961;SDS011;37986;51.238;17.128;2022-09-03T13:11:14;4.87;;;2.45;;
51961;SDS011;37986;51.238;17.128;2022-09-03T13:13:59;5.35;;;2.42;;
51961;SDS011;37986;51.238;17.128;2022-09-03T13:22:21;3.83;;;2.40;;
51961;SDS011;37986;51.238;17.128;2022-09-03T13:34:07;4.25;;;1.98;;
51961;SDS011;37986;51.238;17.128;2022-09-03T13:36:56;4.20;;;2.00;;
51961;SDS011;37986;51.238;17.128;2022-09-03T13:39:41;7.25;;;2.17;;
51961;SDS011;37986;51.238;17.128;2022-09-03T13:42:31;5.90;;;2.17;;
51961;SDS011;37986;51.238;17.128;2022-09-03T13:48:07;5.47;;;1.95;;
51961;SDS011;37986;51.238;17.128;2022-09-03T13:53:43;3.70;;;2.40;;
51961;SDS011;37986;51.238;17.128;2022-09-03T13:56:56;3.45;;;2.40;;
51961;SDS011;37986;51.238;17.128;2022-09-03T14:16:43;5.70;;;1.92;;
51961;SDS011;37986;51.238;17.128;2022-09-03T14:22:10;3.92;;;1.82;;
51961;SDS011;37986;51.238;17.128;2022-09-03T14:25:28;7.17;;;1.98;;
51961;SDS011;37986;51.238;17.128;2022-09-03T14:27:31;3.85;;;1.95;;
51961;SDS011;37986;51.238;17.128;2022-09-03T14:32:36;3.30;;;1.90;;
51961;SDS011;37986;51.238;17.128;2022-09-03T14:38:22;3.02;;;1.80;;
51961;SDS011;37986;51.238;17.128;2022-09-03T14:43:55;6.60;;;2.65;;
51961;SDS011;37986;51.238;17.128;2022-09-03T14:46:51;13.50;;;2.85;;
51961;SDS011;37986;51.238;17.128;2022-09-03T14:55:05;3.90;;;2.15;;
51961;SDS011;37986;51.238;17.128;2022-09-03T15:01:00;5.55;;;2.77;;
51961;SDS011;37986;51.238;17.128;2022-09-03T15:09:49;5.30;;;2.33;;
51961;SDS011;37986;51.238;17.128;2022-09-03T15:12:57;3.00;;;1.98;;
51961;SDS011;37986;51.238;17.128;2022-09-03T15:16:08;3.92;;;2.20;;
51961;SDS011;37986;51.238;17.128;2022-09-03T15:18:09;4.42;;;2.20;;
51961;SDS011;37986;51.238;17.128;2022-09-03T15:24:21;4.28;;;2.15;;
51961;SDS011;37986;51.238;17.128;2022-09-03T15:26:42;3.58;;;2.22;;
51961;SDS011;37986;51.238;17.128;2022-09-03T15:34:47;5.00;;;2.33;;
51961;SDS011;37986;51.238;17.128;2022-09-03T15:37:35;6.25;;;2.52;;
51961;SDS011;37986;51.238;17.128;2022-09-03T15:40:21;3.55;;;2.27;;
51961;SDS011;37986;51.238;17.128;2022-09-03T15:42:48;5.33;;;2.65;;
51961;SDS011;37986;51.238;17.128;2022-09-03T15:45:27;4.60;;;2.70;;
51961;SDS011;37986;51.238;17.128;2022-09-03T15:48:06;3.65;;;2.02;;
51961;SDS011;37986;51.238;17.128;2022-09-03T15:50:55;6.05;;;2.37;;
51961;SDS011;37986;51.238;17.128;2022-09-03T15:56:26;4.37;;;2.42;;
51961;SDS011;37986;51.238;17.128;2022-09-03T15:59:05;5.40;;;2.42;;
51961;SDS011;37986;51.238;17.128;2022-09-03T16:02:08;7.80;;;3.70;;
51961;SDS011;37986;51.238;17.128;2022-09-03T16:05:02;18.92;;;5.85;;
51961;SDS011;37986;51.238;17.128;2022-09-03T16:08:01;4.87;;;3.17;;
51961;SDS011;37986;51.238;17.128;2022-09-03T16:16:27;8.30;;;2.60;;
51961;SDS011;37986;51.238;17.128;2022-09-03T16:19:17;4.62;;;2.55;;
51961;SDS011;37986;51.238;17.128;2022-09-03T16:22:11;5.42;;;2.65;;
51961;SDS011;37986;51.238;17.128;2022-09-03T16:30:08;5.03;;;2.33;;
51961;SDS011;37986;51.238;17.128;2022-09-03T16:46:39;5.37;;;2.60;;
51961;SDS011;37986;51.238;17.128;2022-09-03T16:52:37;3.95;;;2.95;;
51961;SDS011;37986;51.238;17.128;2022-09-03T16:58:20;6.17;;;2.90;;
51961;SDS011;37986;51.238;17.128;2022-09-03T17:03:43;10.85;;;4.33;;
51961;SDS011;37986;51.238;17.128;2022-09-03T17:15:10;11.70;;;5.47;;
51961;SDS011;37986;51.238;17.128;2022-09-03T17:40:58;10.90;;;4.53;;
51961;SDS011;37986;51.238;17.128;2022-09-03T17:43:41;9.18;;;5.00;;
51961;SDS011;37986;51.238;17.128;2022-09-03T17:46:43;10.18;;;5.22;;
51961;SDS011;37986;51.238;17.128;2022-09-03T17:49:30;6.00;;;4.15;;
51961;SDS011;37986;51.238;17.128;2022-09-03T18:02:39;10.50;;;6.80;;
51961;SDS011;37986;51.238;17.128;2022-09-03T18:11:05;11.95;;;6.05;;
51961;SDS011;37986;51.238;17.128;2022-09-03T18:16:52;8.30;;;5.67;;
51961;SDS011;37986;51.238;17.128;2022-09-03T18:22:34;17.73;;;11.88;;
51961;SDS011;37986;51.238;17.128;2022-09-03T18:25:21;16.10;;;10.18;;
51961;SDS011;37986;51.238;17.128;2022-09-03T18:28:09;20.02;;;9.40;;
51961;SDS011;37986;51.238;17.128;2022-09-03T18:30:57;17.10;;;9.23;;
51961;SDS011;37986;51.238;17.128;2022-09-03T18:33:42;16.60;;;8.20;;
51961;SDS011;37986;51.238;17.128;2022-09-03T18:36:26;12.98;;;8.23;;
51961;SDS011;37986;51.238;17.128;2022-09-03T18:39:14;17.98;;;9.90;;
51961;SDS011;37986;51.238;17.128;2022-09-03T18:42:21;20.88;;;9.35;;
51961;SDS011;37986;51.238;17.128;2022-09-03T18:45:34;11.08;;;7.33;;
51961;SDS011;37986;51.238;17.128;2022-09-03T18:49:22;14.58;;;6.83;;
51961;SDS011;37986;51.238;17.128;2022-09-03T18:54:55;18.55;;;9.15;;
51961;SDS011;37986;51.238;17.128;2022-09-03T19:01:39;15.28;;;4.97;;
51961;SDS011;37986;51.238;17.128;2022-09-03T19:08:01;14.47;;;6.75;;
51961;SDS011;37986;51.238;17.128;2022-09-03T19:14:06;15.10;;;8.48;;
51961;SDS011;37986;51.238;17.128;2022-09-03T19:17:15;12.85;;;7.20;;
51961;SDS011;37986;51.238;17.128;2022-09-03T19:23:11;11.88;;;6.00;;
51961;SDS011;37986;51.238;17.128;2022-09-03T19:25:56;15.72;;;6.33;;
51961;SDS011;37986;51.238;17.128;2022-09-03T19:29:08;14.93;;;7.97;;
51961;SDS011;37986;51.238;17.128;2022-09-03T19:32:14;8.85;;;5.53;;
51961;SDS011;37986;51.238;17.128;2022-09-03T19:35:18;9.28;;;5.42;;
51961;SDS011;37986;51.238;17.128;2022-09-03T19:41:26;10.55;;;5.72;;
51961;SDS011;37986;51.238;17.128;2022-09-03T19:47:03;11.20;;;7.17;;
51961;SDS011;37986;51.238;17.128;2022-09-03T19:49:54;10.08;;;7.10;;
51961;SDS011;37986;51.238;17.128;2022-09-03T19:55:47;13.93;;;7.97;;
51961;SDS011;37986;51.238;17.128;2022-09-03T19:58:48;12.13;;;6.40;;
51961;SDS011;37986;51.238;17.128;2022-09-03T20:01:35;7.97;;;4.17;;
51961;SDS011;37986;51.238;17.128;2022-09-03T20:04:29;7.90;;;4.67;;
51961;SDS011;37986;51.238;17.128;2022-09-03T20:07:15;7.22;;;4.90;;
51961;SDS011;37986;51.238;17.128;2022-09-03T20:10:03;10.00;;;4.40;;
51961;SDS011;37986;51.238;17.128;2022-09-03T20:15:44;6.67;;;4.90;;
51961;SDS011;37986;51.238;17.128;2022-09-03T20:21:33;8.63;;;4.25;;
51961;SDS011;37986;51.238;17.128;2022-09-03T20:56:02;8.28;;;4.92;;
51961;SDS011;37986;51.238;17.128;2022-09-03T21:01:19;10.45;;;5.83;;
51961;SDS011;37986;51.238;17.128;2022-09-03T21:04:16;7.15;;;5.22;;
51961;SDS011;37986;51.238;17.128;2022-09-03T21:15:13;20.77;;;10.23;;
51961;SDS011;37986;51.238;17.128;2022-09-03T21:18:09;25.88;;;14.30;;
51961;SDS011;37986;51.238;17.128;2022-09-03T21:21:20;11.43;;;6.23;;
51961;SDS011;37986;51.238;17.128;2022-09-03T21:26:54;13.05;;;6.92;;
51961;SDS011;37986;51.238;17.128;2022-09-03T21:29:39;30.05;;;21.68;;
51961;SDS011;37986;51.238;17.128;2022-09-03T21:37:33;10.40;;;6.25;;
51961;SDS011;37986;51.238;17.128;2022-09-03T21:40:02;7.85;;;5.53;;
51961;SDS011;37986;51.238;17.128;2022-09-03T21:42:33;8.98;;;5.30;;
51961;SDS011;37986;51.238;17.128;2022-09-03T21:45:35;10.65;;;5.22;;
51961;SDS011;37986;51.238;17.128;2022-09-03T21:51:38;16.70;;;6.22;;
51961;SDS011;37986;51.238;17.128;2022-09-03T21:59:33;8.03;;;5.15;;
51961;SDS011;37986;51.238;17.128;2022-09-03T22:02:16;11.53;;;6.97;;
51961;SDS011;37986;51.238;17.128;2022-09-03T22:04:49;9.58;;;6.40;;